sensor_id;sensor_type;location;lat;lon;timestamp;P1;durP1;ratioP1;P2;durP2;ratioP2
75295;SDS011;64623;44.738;37.804;2023-08-07T00:00:01;10.80;;;9.60;;
75295;SDS011;64623;44.738;37.804;2023-08-07T00:01:06;13.05;;;9.57;;
75295;SDS011;64623;44.738;37.804;2023-08-07T00:02:09;14.98;;;9.60;;
75295;SDS011;64623;44.738;37.804;2023-08-07T00:03:11;12.30;;;8.50;;
75295;SDS011;64623;44.738;37.804;2023-08-07T00:04:20;12.60;;;9.32;;
75295;SDS011;64623;44.738;37.804;2023-08-07T00:05:23;19.58;;;10.30;;
75295;SDS011;64623;44.738;37.804;2023-08-07T00:06:26;16.17;;;9.20;;
75295;SDS011;64623;44.738;37.804;2023-08-07T00:07:28;14.35;;;10.73;;
75295;SDS011;64623;44.738;37.804;2023-08-07T00:08:31;11.50;;;9.98;;
75295;SDS011;64623;44.738;37.804;2023-08-07T00:09:35;13.38;;;11.98;;
75295;SDS011;64623;44.738;37.804;2023-08-07T00:10:38;18.63;;;10.85;;
75295;SDS011;64623;44.738;37.804;2023-08-07T00:11:41;19.60;;;11.27;;
75295;SDS011;64623;44.738;37.804;2023-08-07T00:12:44;28.50;;;16.98;;
75295;SDS011;64623;44.738;37.804;2023-08-07T00:13:46;24.60;;;17.33;;
75295;SDS011;64623;44.738;37.804;2023-08-07T00:14:52;35.22;;;22.63;;
75295;SDS011;64623;44.738;37.804;2023-08-07T00:15:55;85.60;;;46.60;;
75295;SDS011;64623;44.738;37.804;2023-08-07T00:16:58;75.05;;;41.38;;
75295;SDS011;64623;44.738;37.804;2023-08-07T00:18:01;70.57;;;39.92;;
75295;SDS011;64623;44.738;37.804;2023-08-07T00:19:03;58.83;;;38.58;;
75295;SDS011;64623;44.738;37.804;2023-08-07T00:20:06;63.38;;;36.35;;
75295;SDS011;64623;44.738;37.804;2023-08-07T00:21:10;53.03;;;30.63;;
75295;SDS011;64623;44.738;37.804;2023-08-07T00:22:12;48.13;;;27.77;;
75295;SDS011;64623;44.738;37.804;2023-08-07T00:23:15;51.30;;;30.20;;
75295;SDS011;64623;44.738;37.804;2023-08-07T00:24:18;38.80;;;24.65;;
75295;SDS011;64623;44.738;37.804;2023-08-07T00:25:21;27.55;;;17.77;;
75295;SDS011;64623;44.738;37.804;2023-08-07T00:26:24;21.90;;;16.00;;
75295;SDS011;64623;44.738;37.804;2023-08-07T00:27:26;24.58;;;14.63;;
75295;SDS011;64623;44.738;37.804;2023-08-07T00:28:29;21.25;;;14.45;;
75295;SDS011;64623;44.738;37.804;2023-08-07T00:29:32;15.43;;;13.50;;
75295;SDS011;64623;44.738;37.804;2023-08-07T00:30:35;17.10;;;13.95;;
75295;SDS011;64623;44.738;37.804;2023-08-07T00:31:38;13.32;;;11.90;;
75295;SDS011;64623;44.738;37.804;2023-08-07T00:32:42;17.85;;;11.82;;
75295;SDS011;64623;44.738;37.804;2023-08-07T00:33:45;21.25;;;12.40;;
75295;SDS011;64623;44.738;37.804;2023-08-07T00:34:48;20.83;;;12.93;;
75295;SDS011;64623;44.738;37.804;2023-08-07T00:35:51;22.00;;;12.38;;
75295;SDS011;64623;44.738;37.804;2023-08-07T00:36:54;23.55;;;11.70;;
75295;SDS011;64623;44.738;37.804;2023-08-07T00:37:57;20.05;;;12.13;;
75295;SDS011;64623;44.738;37.804;2023-08-07T00:39:00;23.77;;;12.18;;
75295;SDS011;64623;44.738;37.804;2023-08-07T00:40:05;21.50;;;8.98;;
75295;SDS011;64623;44.738;37.804;2023-08-07T00:41:08;22.98;;;11.43;;
75295;SDS011;64623;44.738;37.804;2023-08-07T00:42:12;25.50;;;12.15;;
75295;SDS011;64623;44.738;37.804;2023-08-07T00:43:14;24.00;;;11.98;;
75295;SDS011;64623;44.738;37.804;2023-08-07T00:44:17;18.38;;;10.95;;
75295;SDS011;64623;44.738;37.804;2023-08-07T00:45:20;16.58;;;10.30;;
75295;SDS011;64623;44.738;37.804;2023-08-07T00:46:23;19.67;;;10.73;;
75295;SDS011;64623;44.738;37.804;2023-08-07T00:47:27;19.58;;;10.75;;
75295;SDS011;64623;44.738;37.804;2023-08-07T00:48:31;20.67;;;10.18;;
75295;SDS011;64623;44.738;37.804;2023-08-07T00:49:34;17.45;;;10.60;;
75295;SDS011;64623;44.738;37.804;2023-08-07T00:50:38;18.23;;;10.88;;
75295;SDS011;64623;44.738;37.804;2023-08-07T00:51:47;14.43;;;11.07;;
75295;SDS011;64623;44.738;37.804;2023-08-07T00:52:50;16.65;;;10.38;;
75295;SDS011;64623;44.738;37.804;2023-08-07T00:53:53;14.25;;;10.23;;
75295;SDS011;64623;44.738;37.804;2023-08-07T00:54:57;14.43;;;9.90;;
75295;SDS011;64623;44.738;37.804;2023-08-07T00:56:00;12.00;;;10.68;;
75295;SDS011;64623;44.738;37.804;2023-08-07T00:57:11;10.35;;;9.00;;
75295;SDS011;64623;44.738;37.804;2023-08-07T00:58:17;13.25;;;9.68;;
75295;SDS011;64623;44.738;37.804;2023-08-07T00:59:20;14.30;;;10.52;;
75295;SDS011;64623;44.738;37.804;2023-08-07T01:00:25;19.58;;;10.60;;
75295;SDS011;64623;44.738;37.804;2023-08-07T01:01:29;13.88;;;10.40;;
75295;SDS011;64623;44.738;37.804;2023-08-07T01:02:32;20.55;;;11.35;;
75295;SDS011;64623;44.738;37.804;2023-08-07T01:03:38;13.90;;;10.15;;
75295;SDS011;64623;44.738;37.804;2023-08-07T01:04:41;17.90;;;10.95;;
75295;SDS011;64623;44.738;37.804;2023-08-07T01:05:44;16.63;;;10.45;;
75295;SDS011;64623;44.738;37.804;2023-08-07T01:06:47;11.10;;;9.55;;
75295;SDS011;64623;44.738;37.804;2023-08-07T01:07:50;15.50;;;11.52;;
75295;SDS011;64623;44.738;37.804;2023-08-07T01:08:56;15.75;;;10.48;;
75295;SDS011;64623;44.738;37.804;2023-08-07T01:09:59;12.38;;;10.45;;
75295;SDS011;64623;44.738;37.804;2023-08-07T01:12:23;15.50;;;10.15;;
75295;SDS011;64623;44.738;37.804;2023-08-07T01:13:40;14.63;;;10.73;;
75295;SDS011;64623;44.738;37.804;2023-08-07T01:15:59;16.38;;;10.73;;
75295;SDS011;64623;44.738;37.804;2023-08-07T01:18:12;16.73;;;11.40;;
75295;SDS011;64623;44.738;37.804;2023-08-07T01:19:23;15.38;;;9.77;;
75295;SDS011;64623;44.738;37.804;2023-08-07T01:20:27;13.82;;;10.07;;
75295;SDS011;64623;44.738;37.804;2023-08-07T01:21:32;14.30;;;10.57;;
75295;SDS011;64623;44.738;37.804;2023-08-07T01:22:35;13.45;;;10.48;;
75295;SDS011;64623;44.738;37.804;2023-08-07T01:23:38;14.82;;;11.02;;
75295;SDS011;64623;44.738;37.804;2023-08-07T01:24:44;14.52;;;10.88;;
75295;SDS011;64623;44.738;37.804;2023-08-07T01:25:48;12.30;;;11.02;;
75295;SDS011;64623;44.738;37.804;2023-08-07T01:26:52;12.52;;;7.82;;
75295;SDS011;64623;44.738;37.804;2023-08-07T01:29:29;15.90;;;11.52;;
75295;SDS011;64623;44.738;37.804;2023-08-07T01:30:39;14.80;;;11.13;;
75295;SDS011;64623;44.738;37.804;2023-08-07T01:31:44;13.30;;;11.45;;
75295;SDS011;64623;44.738;37.804;2023-08-07T01:34:06;12.00;;;10.75;;
75295;SDS011;64623;44.738;37.804;2023-08-07T01:35:14;12.75;;;11.27;;
75295;SDS011;64623;44.738;37.804;2023-08-07T01:36:18;14.13;;;10.75;;
75295;SDS011;64623;44.738;37.804;2023-08-07T01:37:22;12.85;;;10.98;;
75295;SDS011;64623;44.738;37.804;2023-08-07T01:38:27;13.93;;;8.57;;
75295;SDS011;64623;44.738;37.804;2023-08-07T01:39:31;11.50;;;10.15;;
75295;SDS011;64623;44.738;37.804;2023-08-07T01:40:34;14.63;;;10.23;;
75295;SDS011;64623;44.738;37.804;2023-08-07T01:41:40;14.68;;;11.48;;
75295;SDS011;64623;44.738;37.804;2023-08-07T01:42:43;15.93;;;12.65;;
75295;SDS011;64623;44.738;37.804;2023-08-07T01:43:47;16.08;;;11.93;;
75295;SDS011;64623;44.738;37.804;2023-08-07T01:44:50;20.88;;;12.32;;
75295;SDS011;64623;44.738;37.804;2023-08-07T01:45:53;16.88;;;12.75;;
75295;SDS011;64623;44.738;37.804;2023-08-07T01:46:55;19.42;;;12.25;;
75295;SDS011;64623;44.738;37.804;2023-08-07T01:47:58;22.52;;;13.30;;
75295;SDS011;64623;44.738;37.804;2023-08-07T01:49:01;18.83;;;13.82;;
75295;SDS011;64623;44.738;37.804;2023-08-07T01:50:04;18.27;;;12.15;;
75295;SDS011;64623;44.738;37.804;2023-08-07T01:51:08;15.25;;;12.00;;
75295;SDS011;64623;44.738;37.804;2023-08-07T01:52:11;13.45;;;11.77;;
75295;SDS011;64623;44.738;37.804;2023-08-07T01:53:14;17.40;;;12.35;;
75295;SDS011;64623;44.738;37.804;2023-08-07T01:54:17;16.88;;;12.07;;
75295;SDS011;64623;44.738;37.804;2023-08-07T01:55:20;11.93;;;10.80;;
75295;SDS011;64623;44.738;37.804;2023-08-07T01:56:27;15.15;;;11.50;;
75295;SDS011;64623;44.738;37.804;2023-08-07T01:57:30;11.00;;;9.93;;
75295;SDS011;64623;44.738;37.804;2023-08-07T01:58:33;13.00;;;10.52;;
75295;SDS011;64623;44.738;37.804;2023-08-07T01:59:36;11.40;;;10.38;;
75295;SDS011;64623;44.738;37.804;2023-08-07T02:00:39;14.77;;;9.85;;
75295;SDS011;64623;44.738;37.804;2023-08-07T02:01:43;12.50;;;9.98;;
75295;SDS011;64623;44.738;37.804;2023-08-07T02:02:46;13.15;;;10.27;;
75295;SDS011;64623;44.738;37.804;2023-08-07T02:03:49;12.13;;;10.18;;
75295;SDS011;64623;44.738;37.804;2023-08-07T02:04:52;11.85;;;10.15;;
75295;SDS011;64623;44.738;37.804;2023-08-07T02:05:55;12.57;;;11.02;;
75295;SDS011;64623;44.738;37.804;2023-08-07T02:06:59;12.05;;;10.75;;
75295;SDS011;64623;44.738;37.804;2023-08-07T02:08:02;12.80;;;9.85;;
75295;SDS011;64623;44.738;37.804;2023-08-07T02:09:05;14.68;;;9.60;;
75295;SDS011;64623;44.738;37.804;2023-08-07T02:10:09;12.40;;;9.57;;
75295;SDS011;64623;44.738;37.804;2023-08-07T02:11:12;12.73;;;10.10;;
75295;SDS011;64623;44.738;37.804;2023-08-07T02:12:15;15.50;;;10.05;;
75295;SDS011;64623;44.738;37.804;2023-08-07T02:13:18;14.68;;;9.82;;
75295;SDS011;64623;44.738;37.804;2023-08-07T02:14:21;12.57;;;9.57;;
75295;SDS011;64623;44.738;37.804;2023-08-07T02:15:23;14.23;;;10.70;;
75295;SDS011;64623;44.738;37.804;2023-08-07T02:16:26;12.50;;;9.93;;
75295;SDS011;64623;44.738;37.804;2023-08-07T02:17:29;14.60;;;11.80;;
75295;SDS011;64623;44.738;37.804;2023-08-07T02:18:32;13.23;;;11.40;;
75295;SDS011;64623;44.738;37.804;2023-08-07T02:19:55;16.50;;;11.40;;
75295;SDS011;64623;44.738;37.804;2023-08-07T02:20:59;15.45;;;11.88;;
75295;SDS011;64623;44.738;37.804;2023-08-07T02:22:02;13.02;;;11.73;;
75295;SDS011;64623;44.738;37.804;2023-08-07T02:23:05;14.68;;;11.25;;
75295;SDS011;64623;44.738;37.804;2023-08-07T02:24:08;15.77;;;10.55;;
75295;SDS011;64623;44.738;37.804;2023-08-07T02:25:13;17.30;;;12.45;;
75295;SDS011;64623;44.738;37.804;2023-08-07T02:26:16;14.38;;;11.90;;
75295;SDS011;64623;44.738;37.804;2023-08-07T02:27:19;15.35;;;10.68;;
75295;SDS011;64623;44.738;37.804;2023-08-07T02:28:22;13.00;;;10.60;;
75295;SDS011;64623;44.738;37.804;2023-08-07T02:29:24;14.15;;;10.52;;
75295;SDS011;64623;44.738;37.804;2023-08-07T02:30:27;15.35;;;10.90;;
75295;SDS011;64623;44.738;37.804;2023-08-07T02:31:30;13.10;;;10.48;;
75295;SDS011;64623;44.738;37.804;2023-08-07T02:32:33;14.57;;;10.45;;
75295;SDS011;64623;44.738;37.804;2023-08-07T02:33:36;15.68;;;10.80;;
75295;SDS011;64623;44.738;37.804;2023-08-07T02:34:39;15.77;;;11.23;;
75295;SDS011;64623;44.738;37.804;2023-08-07T02:35:41;12.75;;;11.18;;
75295;SDS011;64623;44.738;37.804;2023-08-07T02:36:45;13.80;;;11.57;;
75295;SDS011;64623;44.738;37.804;2023-08-07T02:37:48;14.43;;;12.10;;
75295;SDS011;64623;44.738;37.804;2023-08-07T02:38:51;14.23;;;10.88;;
75295;SDS011;64623;44.738;37.804;2023-08-07T02:39:55;18.92;;;10.45;;
75295;SDS011;64623;44.738;37.804;2023-08-07T02:40:58;14.27;;;12.10;;
75295;SDS011;64623;44.738;37.804;2023-08-07T02:42:01;16.30;;;10.85;;
75295;SDS011;64623;44.738;37.804;2023-08-07T02:43:05;12.18;;;10.80;;
75295;SDS011;64623;44.738;37.804;2023-08-07T02:44:08;17.08;;;11.80;;
75295;SDS011;64623;44.738;37.804;2023-08-07T02:45:10;13.43;;;11.23;;
75295;SDS011;64623;44.738;37.804;2023-08-07T02:46:13;13.70;;;10.65;;
75295;SDS011;64623;44.738;37.804;2023-08-07T02:47:16;13.98;;;10.43;;
75295;SDS011;64623;44.738;37.804;2023-08-07T02:48:19;11.75;;;10.65;;
75295;SDS011;64623;44.738;37.804;2023-08-07T02:49:23;12.27;;;11.10;;
75295;SDS011;64623;44.738;37.804;2023-08-07T02:50:27;17.10;;;11.70;;
75295;SDS011;64623;44.738;37.804;2023-08-07T02:51:34;14.48;;;10.90;;
75295;SDS011;64623;44.738;37.804;2023-08-07T02:52:37;14.90;;;11.10;;
75295;SDS011;64623;44.738;37.804;2023-08-07T02:53:40;12.00;;;10.70;;
75295;SDS011;64623;44.738;37.804;2023-08-07T02:54:43;12.98;;;10.75;;
75295;SDS011;64623;44.738;37.804;2023-08-07T02:55:45;16.23;;;11.15;;
75295;SDS011;64623;44.738;37.804;2023-08-07T02:56:48;12.57;;;10.25;;
75295;SDS011;64623;44.738;37.804;2023-08-07T02:57:51;13.50;;;9.82;;
75295;SDS011;64623;44.738;37.804;2023-08-07T02:58:54;11.90;;;10.63;;
75295;SDS011;64623;44.738;37.804;2023-08-07T03:00:00;13.25;;;10.07;;
75295;SDS011;64623;44.738;37.804;2023-08-07T03:01:04;12.38;;;11.10;;
75295;SDS011;64623;44.738;37.804;2023-08-07T03:02:10;12.57;;;10.90;;
75295;SDS011;64623;44.738;37.804;2023-08-07T03:03:13;11.90;;;10.30;;
75295;SDS011;64623;44.738;37.804;2023-08-07T03:04:16;16.48;;;11.13;;
75295;SDS011;64623;44.738;37.804;2023-08-07T03:05:19;12.10;;;10.55;;
75295;SDS011;64623;44.738;37.804;2023-08-07T03:06:22;14.75;;;10.25;;
75295;SDS011;64623;44.738;37.804;2023-08-07T03:07:25;13.32;;;11.70;;
75295;SDS011;64623;44.738;37.804;2023-08-07T03:08:28;13.77;;;11.07;;
75295;SDS011;64623;44.738;37.804;2023-08-07T03:09:31;18.38;;;10.65;;
75295;SDS011;64623;44.738;37.804;2023-08-07T03:10:34;18.42;;;11.07;;
75295;SDS011;64623;44.738;37.804;2023-08-07T03:11:36;13.73;;;11.50;;
75295;SDS011;64623;44.738;37.804;2023-08-07T03:12:39;18.60;;;11.82;;
75295;SDS011;64623;44.738;37.804;2023-08-07T03:13:42;12.63;;;11.23;;
75295;SDS011;64623;44.738;37.804;2023-08-07T03:14:46;15.05;;;12.32;;
75295;SDS011;64623;44.738;37.804;2023-08-07T03:15:49;13.50;;;11.63;;
75295;SDS011;64623;44.738;37.804;2023-08-07T03:16:52;12.30;;;10.90;;
75295;SDS011;64623;44.738;37.804;2023-08-07T03:17:55;13.18;;;10.05;;
75295;SDS011;64623;44.738;37.804;2023-08-07T03:18:58;12.80;;;11.55;;
75295;SDS011;64623;44.738;37.804;2023-08-07T03:20:01;18.30;;;11.95;;
75295;SDS011;64623;44.738;37.804;2023-08-07T03:21:06;12.88;;;11.55;;
75295;SDS011;64623;44.738;37.804;2023-08-07T03:22:09;19.30;;;13.25;;
75295;SDS011;64623;44.738;37.804;2023-08-07T03:23:12;14.20;;;11.18;;
75295;SDS011;64623;44.738;37.804;2023-08-07T03:24:15;14.23;;;11.75;;
75295;SDS011;64623;44.738;37.804;2023-08-07T03:25:18;13.60;;;12.30;;
75295;SDS011;64623;44.738;37.804;2023-08-07T03:26:20;14.50;;;11.32;;
75295;SDS011;64623;44.738;37.804;2023-08-07T03:27:23;12.98;;;11.32;;
75295;SDS011;64623;44.738;37.804;2023-08-07T03:28:26;15.48;;;11.75;;
75295;SDS011;64623;44.738;37.804;2023-08-07T03:29:29;12.57;;;11.40;;
75295;SDS011;64623;44.738;37.804;2023-08-07T03:30:32;14.55;;;12.23;;
75295;SDS011;64623;44.738;37.804;2023-08-07T03:31:34;13.75;;;11.23;;
75295;SDS011;64623;44.738;37.804;2023-08-07T03:32:39;13.40;;;12.00;;
75295;SDS011;64623;44.738;37.804;2023-08-07T03:33:45;12.13;;;11.10;;
75295;SDS011;64623;44.738;37.804;2023-08-07T03:34:50;14.05;;;12.23;;
75295;SDS011;64623;44.738;37.804;2023-08-07T03:35:52;13.23;;;11.88;;
75295;SDS011;64623;44.738;37.804;2023-08-07T03:36:55;12.60;;;11.32;;
75295;SDS011;64623;44.738;37.804;2023-08-07T03:37:58;11.80;;;10.60;;
75295;SDS011;64623;44.738;37.804;2023-08-07T03:39:01;12.85;;;11.40;;
75295;SDS011;64623;44.738;37.804;2023-08-07T03:40:05;12.80;;;11.70;;
75295;SDS011;64623;44.738;37.804;2023-08-07T03:41:08;16.52;;;11.80;;
75295;SDS011;64623;44.738;37.804;2023-08-07T03:42:13;14.73;;;11.38;;
75295;SDS011;64623;44.738;37.804;2023-08-07T03:43:21;12.82;;;11.50;;
75295;SDS011;64623;44.738;37.804;2023-08-07T03:44:23;12.27;;;10.98;;
75295;SDS011;64623;44.738;37.804;2023-08-07T03:45:26;15.52;;;14.10;;
75295;SDS011;64623;44.738;37.804;2023-08-07T03:46:29;13.38;;;11.95;;
75295;SDS011;64623;44.738;37.804;2023-08-07T03:47:32;11.43;;;9.50;;
75295;SDS011;64623;44.738;37.804;2023-08-07T03:48:35;13.07;;;11.90;;
75295;SDS011;64623;44.738;37.804;2023-08-07T03:49:38;11.18;;;10.27;;
75295;SDS011;64623;44.738;37.804;2023-08-07T03:50:41;11.57;;;10.57;;
75295;SDS011;64623;44.738;37.804;2023-08-07T03:51:44;11.70;;;10.60;;
75295;SDS011;64623;44.738;37.804;2023-08-07T03:52:47;12.07;;;10.95;;
75295;SDS011;64623;44.738;37.804;2023-08-07T03:53:50;10.43;;;9.55;;
75295;SDS011;64623;44.738;37.804;2023-08-07T03:54:53;10.50;;;9.55;;
75295;SDS011;64623;44.738;37.804;2023-08-07T03:55:56;10.85;;;9.85;;
75295;SDS011;64623;44.738;37.804;2023-08-07T03:56:58;11.85;;;8.63;;
75295;SDS011;64623;44.738;37.804;2023-08-07T03:58:01;9.75;;;8.90;;
75295;SDS011;64623;44.738;37.804;2023-08-07T03:59:05;9.77;;;9.02;;
75295;SDS011;64623;44.738;37.804;2023-08-07T04:00:09;8.63;;;7.93;;
75295;SDS011;64623;44.738;37.804;2023-08-07T04:01:16;8.93;;;8.32;;
75295;SDS011;64623;44.738;37.804;2023-08-07T04:02:19;8.70;;;8.05;;
75295;SDS011;64623;44.738;37.804;2023-08-07T04:03:22;8.88;;;8.07;;
75295;SDS011;64623;44.738;37.804;2023-08-07T04:04:24;9.60;;;8.60;;
75295;SDS011;64623;44.738;37.804;2023-08-07T04:05:27;8.88;;;7.78;;
75295;SDS011;64623;44.738;37.804;2023-08-07T04:06:30;9.18;;;8.43;;
75295;SDS011;64623;44.738;37.804;2023-08-07T04:07:33;9.00;;;8.07;;
75295;SDS011;64623;44.738;37.804;2023-08-07T04:08:35;9.27;;;8.55;;
75295;SDS011;64623;44.738;37.804;2023-08-07T04:09:38;8.70;;;8.00;;
75295;SDS011;64623;44.738;37.804;2023-08-07T04:10:41;9.32;;;8.48;;
75295;SDS011;64623;44.738;37.804;2023-08-07T04:11:44;8.15;;;7.53;;
75295;SDS011;64623;44.738;37.804;2023-08-07T04:12:47;8.40;;;7.70;;
75295;SDS011;64623;44.738;37.804;2023-08-07T04:13:51;8.45;;;7.65;;
75295;SDS011;64623;44.738;37.804;2023-08-07T04:14:53;9.02;;;8.23;;
75295;SDS011;64623;44.738;37.804;2023-08-07T04:15:56;7.45;;;6.85;;
75295;SDS011;64623;44.738;37.804;2023-08-07T04:17:00;5.70;;;5.15;;
75295;SDS011;64623;44.738;37.804;2023-08-07T04:18:04;7.80;;;7.00;;
75295;SDS011;64623;44.738;37.804;2023-08-07T04:19:06;9.70;;;7.03;;
75295;SDS011;64623;44.738;37.804;2023-08-07T04:20:09;8.48;;;7.85;;
75295;SDS011;64623;44.738;37.804;2023-08-07T04:21:13;6.75;;;6.22;;
75295;SDS011;64623;44.738;37.804;2023-08-07T04:22:16;7.50;;;6.80;;
75295;SDS011;64623;44.738;37.804;2023-08-07T04:23:19;7.47;;;6.88;;
75295;SDS011;64623;44.738;37.804;2023-08-07T04:24:22;8.52;;;7.68;;
75295;SDS011;64623;44.738;37.804;2023-08-07T04:25:25;7.60;;;6.90;;
75295;SDS011;64623;44.738;37.804;2023-08-07T04:26:28;7.50;;;6.90;;
75295;SDS011;64623;44.738;37.804;2023-08-07T04:27:31;7.30;;;6.75;;
75295;SDS011;64623;44.738;37.804;2023-08-07T04:28:34;7.28;;;5.05;;
75295;SDS011;64623;44.738;37.804;2023-08-07T04:29:36;7.10;;;6.50;;
75295;SDS011;64623;44.738;37.804;2023-08-07T04:30:43;7.13;;;6.53;;
75295;SDS011;64623;44.738;37.804;2023-08-07T04:31:46;7.72;;;7.05;;
75295;SDS011;64623;44.738;37.804;2023-08-07T04:32:49;6.32;;;5.93;;
75295;SDS011;64623;44.738;37.804;2023-08-07T04:33:53;6.72;;;6.13;;
75295;SDS011;64623;44.738;37.804;2023-08-07T04:34:55;6.35;;;5.85;;
75295;SDS011;64623;44.738;37.804;2023-08-07T04:35:58;9.55;;;6.80;;
75295;SDS011;64623;44.738;37.804;2023-08-07T04:37:01;7.70;;;7.18;;
75295;SDS011;64623;44.738;37.804;2023-08-07T04:38:04;6.90;;;6.32;;
75295;SDS011;64623;44.738;37.804;2023-08-07T04:39:07;7.10;;;6.50;;
75295;SDS011;64623;44.738;37.804;2023-08-07T04:40:10;7.13;;;6.60;;
75295;SDS011;64623;44.738;37.804;2023-08-07T04:41:13;8.10;;;7.22;;
75295;SDS011;64623;44.738;37.804;2023-08-07T04:42:16;7.13;;;6.32;;
75295;SDS011;64623;44.738;37.804;2023-08-07T04:43:19;6.55;;;6.15;;
75295;SDS011;64623;44.738;37.804;2023-08-07T04:44:22;7.15;;;6.50;;
75295;SDS011;64623;44.738;37.804;2023-08-07T04:45:25;6.93;;;6.32;;
75295;SDS011;64623;44.738;37.804;2023-08-07T04:46:28;6.85;;;6.18;;
75295;SDS011;64623;44.738;37.804;2023-08-07T04:47:31;7.13;;;6.55;;
75295;SDS011;64623;44.738;37.804;2023-08-07T04:48:34;8.02;;;7.38;;
75295;SDS011;64623;44.738;37.804;2023-08-07T04:49:40;7.40;;;6.65;;
75295;SDS011;64623;44.738;37.804;2023-08-07T04:50:43;8.40;;;7.70;;
75295;SDS011;64623;44.738;37.804;2023-08-07T04:51:45;8.07;;;7.45;;
75295;SDS011;64623;44.738;37.804;2023-08-07T04:52:48;8.55;;;6.40;;
75295;SDS011;64623;44.738;37.804;2023-08-07T04:53:51;7.25;;;6.40;;
75295;SDS011;64623;44.738;37.804;2023-08-07T04:54:54;7.93;;;6.35;;
75295;SDS011;64623;44.738;37.804;2023-08-07T04:55:58;7.07;;;6.57;;
75295;SDS011;64623;44.738;37.804;2023-08-07T04:57:01;7.97;;;7.25;;
75295;SDS011;64623;44.738;37.804;2023-08-07T04:58:04;8.32;;;7.50;;
75295;SDS011;64623;44.738;37.804;2023-08-07T04:59:08;9.55;;;6.82;;
75295;SDS011;64623;44.738;37.804;2023-08-07T05:00:11;10.88;;;6.93;;
75295;SDS011;64623;44.738;37.804;2023-08-07T05:01:14;7.35;;;6.75;;
75295;SDS011;64623;44.738;37.804;2023-08-07T05:02:17;6.72;;;6.22;;
75295;SDS011;64623;44.738;37.804;2023-08-07T05:03:21;7.18;;;6.57;;
75295;SDS011;64623;44.738;37.804;2023-08-07T05:04:24;6.40;;;5.93;;
75295;SDS011;64623;44.738;37.804;2023-08-07T05:05:26;6.93;;;6.22;;
75295;SDS011;64623;44.738;37.804;2023-08-07T05:06:30;7.13;;;6.40;;
75295;SDS011;64623;44.738;37.804;2023-08-07T05:07:33;6.90;;;6.32;;
75295;SDS011;64623;44.738;37.804;2023-08-07T05:08:37;6.65;;;5.95;;
75295;SDS011;64623;44.738;37.804;2023-08-07T05:09:40;7.68;;;6.97;;
75295;SDS011;64623;44.738;37.804;2023-08-07T05:10:42;7.85;;;7.22;;
75295;SDS011;64623;44.738;37.804;2023-08-07T05:11:45;7.60;;;6.60;;
75295;SDS011;64623;44.738;37.804;2023-08-07T05:12:48;6.72;;;5.85;;
75295;SDS011;64623;44.738;37.804;2023-08-07T05:13:57;6.10;;;5.30;;
75295;SDS011;64623;44.738;37.804;2023-08-07T05:15:00;5.80;;;5.20;;
75295;SDS011;64623;44.738;37.804;2023-08-07T05:16:04;6.07;;;5.57;;
75295;SDS011;64623;44.738;37.804;2023-08-07T05:17:06;5.82;;;5.22;;
75295;SDS011;64623;44.738;37.804;2023-08-07T05:18:09;5.68;;;5.18;;
75295;SDS011;64623;44.738;37.804;2023-08-07T05:19:12;7.25;;;6.07;;
75295;SDS011;64623;44.738;37.804;2023-08-07T05:20:15;6.32;;;5.82;;
75295;SDS011;64623;44.738;37.804;2023-08-07T05:21:18;6.68;;;6.05;;
75295;SDS011;64623;44.738;37.804;2023-08-07T05:22:21;6.07;;;5.57;;
75295;SDS011;64623;44.738;37.804;2023-08-07T05:23:23;6.68;;;6.07;;
75295;SDS011;64623;44.738;37.804;2023-08-07T05:24:26;6.35;;;5.75;;
75295;SDS011;64623;44.738;37.804;2023-08-07T05:25:29;6.43;;;5.97;;
75295;SDS011;64623;44.738;37.804;2023-08-07T05:26:32;6.53;;;5.70;;
75295;SDS011;64623;44.738;37.804;2023-08-07T05:27:35;5.68;;;4.88;;
75295;SDS011;64623;44.738;37.804;2023-08-07T05:28:38;6.68;;;6.03;;
75295;SDS011;64623;44.738;37.804;2023-08-07T05:29:41;6.90;;;6.30;;
75295;SDS011;64623;44.738;37.804;2023-08-07T05:30:47;6.82;;;6.32;;
75295;SDS011;64623;44.738;37.804;2023-08-07T05:31:50;8.15;;;5.40;;
75295;SDS011;64623;44.738;37.804;2023-08-07T05:32:53;6.95;;;6.25;;
75295;SDS011;64623;44.738;37.804;2023-08-07T05:33:56;7.35;;;6.43;;
75295;SDS011;64623;44.738;37.804;2023-08-07T05:34:59;6.22;;;5.72;;
75295;SDS011;64623;44.738;37.804;2023-08-07T05:36:03;8.43;;;6.18;;
75295;SDS011;64623;44.738;37.804;2023-08-07T05:37:08;5.53;;;5.03;;
75295;SDS011;64623;44.738;37.804;2023-08-07T05:38:11;7.43;;;5.95;;
75295;SDS011;64623;44.738;37.804;2023-08-07T05:39:14;8.00;;;6.28;;
75295;SDS011;64623;44.738;37.804;2023-08-07T05:40:16;7.30;;;6.78;;
75295;SDS011;64623;44.738;37.804;2023-08-07T05:41:20;7.35;;;6.72;;
75295;SDS011;64623;44.738;37.804;2023-08-07T05:42:23;6.90;;;6.30;;
75295;SDS011;64623;44.738;37.804;2023-08-07T05:43:25;7.13;;;6.38;;
75295;SDS011;64623;44.738;37.804;2023-08-07T05:44:28;8.02;;;6.20;;
75295;SDS011;64623;44.738;37.804;2023-08-07T05:45:31;6.70;;;6.20;;
75295;SDS011;64623;44.738;37.804;2023-08-07T05:46:34;6.80;;;6.03;;
75295;SDS011;64623;44.738;37.804;2023-08-07T05:47:37;7.13;;;6.63;;
75295;SDS011;64623;44.738;37.804;2023-08-07T05:48:40;7.15;;;6.70;;
75295;SDS011;64623;44.738;37.804;2023-08-07T05:49:42;7.22;;;6.55;;
75295;SDS011;64623;44.738;37.804;2023-08-07T05:50:45;7.18;;;6.57;;
75295;SDS011;64623;44.738;37.804;2023-08-07T05:51:48;8.73;;;7.93;;
75295;SDS011;64623;44.738;37.804;2023-08-07T05:52:51;8.68;;;6.95;;
75295;SDS011;64623;44.738;37.804;2023-08-07T05:53:53;8.00;;;7.20;;
75295;SDS011;64623;44.738;37.804;2023-08-07T05:54:56;9.60;;;6.75;;
75295;SDS011;64623;44.738;37.804;2023-08-07T05:55:59;7.85;;;7.10;;
75295;SDS011;64623;44.738;37.804;2023-08-07T05:57:02;8.68;;;6.32;;
75295;SDS011;64623;44.738;37.804;2023-08-07T05:58:05;7.63;;;6.97;;
75295;SDS011;64623;44.738;37.804;2023-08-07T05:59:08;7.03;;;6.32;;
75295;SDS011;64623;44.738;37.804;2023-08-07T06:00:11;7.10;;;6.50;;
75295;SDS011;64623;44.738;37.804;2023-08-07T06:01:19;7.30;;;6.38;;
75295;SDS011;64623;44.738;37.804;2023-08-07T06:02:22;6.75;;;6.10;;
75295;SDS011;64623;44.738;37.804;2023-08-07T06:03:25;7.25;;;6.50;;
75295;SDS011;64623;44.738;37.804;2023-08-07T06:04:28;6.78;;;5.93;;
75295;SDS011;64623;44.738;37.804;2023-08-07T06:05:31;6.43;;;5.68;;
75295;SDS011;64623;44.738;37.804;2023-08-07T06:06:34;6.65;;;6.15;;
75295;SDS011;64623;44.738;37.804;2023-08-07T06:07:38;6.13;;;5.63;;
75295;SDS011;64623;44.738;37.804;2023-08-07T06:08:40;6.40;;;4.75;;
75295;SDS011;64623;44.738;37.804;2023-08-07T06:09:43;8.63;;;6.18;;
75295;SDS011;64623;44.738;37.804;2023-08-07T06:10:46;6.80;;;6.15;;
75295;SDS011;64623;44.738;37.804;2023-08-07T06:11:49;6.68;;;6.07;;
75295;SDS011;64623;44.738;37.804;2023-08-07T06:12:52;7.20;;;6.45;;
75295;SDS011;64623;44.738;37.804;2023-08-07T06:13:55;7.38;;;6.47;;
75295;SDS011;64623;44.738;37.804;2023-08-07T06:14:58;8.10;;;7.20;;
75295;SDS011;64623;44.738;37.804;2023-08-07T06:16:01;8.18;;;7.47;;